Time;durP1;ratioP1;P1;durP2;ratioP2;P2;SDS_P1;SDS_P2;PMS_P1;PMS_P2;Temp;Humidity;BMP_temperature;BMP_pressure;BME280_temperature;BME280_humidity;BME280_pressure;Samples;Min_cycle;Max_cycle;Signal;HPM_P1;HPM_P2
2021/11/25 06:14:16;;;;;;;23.47;13.70;;;;;;;0.58;83.23;101077.23;1700863;81;21116;-47
2021/11/25 06:21:19;;;;;;;29.40;16.42;;;;;;;0.72;83.03;101078.82;1674949;81;21076;31
2021/11/25 06:24:41;;;;;;;32.28;15.85;;;;;;;0.84;83.01;101083.72;1586564;88;21063;-46
2021/11/25 07:36:50;;;;;;;12.82;9.43;;;;;;;2.31;77.22;101065.03;1724648;81;21067;-42
2021/11/25 08:24:43;;;;;;;18.10;8.03;;;;;;;3.47;69.62;101053.23;1687666;82;21089;-43
2021/11/25 08:35:55;;;;;;;;;;;;;;;3.77;66.63;101038.06;1636407;84;21127;-49
2021/11/25 08:39:34;;;;;;;11.18;7.47;;;;;;;3.87;66.43;101038.88;1675577;84;20144;-48
2021/11/25 08:42:42;;;;;;;18.95;7.67;;;;;;;3.98;65.73;101027.22;1589046;85;21864;-47
2021/11/25 08:45:10;;;;;;;14.53;8.40;;;;;;;4.06;65.35;101025.33;1587315;89;21121;-48
2021/11/25 10:06:40;;;;;;;9.38;5.37;;;;;;;5.82;52.55;100970.83;1700318;81;21943;-47
2021/11/25 10:14:14;;;;;;;8.70;5.30;;;;;;;5.73;53.23;100964.05;1700541;83;21024;-48
2021/11/25 10:30:33;;;;;;;7.65;4.53;;;;;;;7.70;45.93;100930.19;1567499;90;21222;-40
2021/11/25 10:34:04;;;;;;;9.23;6.30;;;;;;;7.55;45.77;100937.68;1569911;90;21954;-42
2021/11/25 10:46:02;;;;;;;6.97;4.87;;;;;;;5.99;50.93;100927.20;1622348;86;21092;-42
2021/11/25 10:56:50;;;;;;;5.55;4.33;;;;;;;5.53;52.60;100907.64;1621570;86;21101;-41
2021/11/25 10:59:43;;;;;;;5.65;4.30;;;;;;;5.52;52.99;100905.02;1645878;86;21407;-40
2021/11/25 11:03:16;;;;;;;5.45;4.12;;;;;;;5.50;52.94;100904.94;1688810;82;21074;-43
2021/11/25 11:06:30;;;;;;;8.20;4.58;;;;;;;5.41;53.39;100887.81;1641184;84;21405;-50
2021/11/25 11:45:01;;;;;;;6.17;4.15;;;;;;;5.55;54.02;100859.24;1666770;84;21063;-39
2021/11/25 11:47:33;;;;;;;5.05;3.92;;;;;;;5.54;53.29;100854.02;1668108;84;21059;-42
2021/11/25 11:50:19;;;;;;;7.53;4.20;;;;;;;5.33;53.18;100860.73;1675524;84;21080;-47
2021/11/25 11:53:09;;;;;;;7.47;4.42;;;;;;;5.14;53.60;100861.02;1666093;84;21139;-42
2021/11/25 11:55:42;;;;;;;8.33;4.90;;;;;;;4.92;53.81;100859.04;1606310;84;21158;-47
2021/11/25 11:59:00;;;;;;;10.28;5.08;;;;;;;4.80;54.51;100858.23;1676536;84;21772;-47
2021/11/25 12:01:43;;;;;;;6.05;4.15;;;;;;;4.75;54.86;100861.13;1665688;84;21630;-48
2021/11/25 12:07:35;;;;;;;5.85;4.08;;;;;;;4.66;55.00;100845.67;1668184;82;21120;-50
2021/11/25 12:10:03;;;;;;;8.70;5.28;;;;;;;4.65;55.63;100853.87;1661035;84;21460;-49
2021/11/25 12:12:32;;;;;;;7.45;4.45;;;;;;;4.64;55.74;100846.02;1622563;86;21132;-42
2021/11/25 12:15:10;;;;;;;5.10;4.03;;;;;;;4.59;56.11;100839.84;1644914;84;21033;-48
2021/11/25 12:17:43;;;;;;;5.47;3.90;;;;;;;4.55;56.52;100832.36;1632864;85;21049;-50
2021/11/25 12:20:30;;;;;;;4.62;3.95;;;;;;;4.52;56.27;100833.16;1636354;84;21499;-49
2021/11/25 12:22:58;;;;;;;8.28;4.33;;;;;;;4.50;57.04;100833.92;1608450;87;21506;-48
2021/11/25 12:26:04;;;;;;;8.73;3.95;;;;;;;4.48;56.94;100828.70;1633740;86;21127;-49
2021/11/25 12:36:52;;;;;;;7.22;4.55;;;;;;;4.37;56.72;100819.69;1680907;83;21429;-49
2021/11/25 12:43:26;;;;;;;6.72;4.03;;;;;;;4.31;57.57;100812.12;1577181;89;21537;-48
2021/11/25 12:46:05;;;;;;;7.25;4.05;;;;;;;4.31;56.47;100818.60;1562229;90;21163;-49
2021/11/25 12:48:39;;;;;;;5.17;4.25;;;;;;;4.26;56.63;100821.03;1574574;89;21117;-43
2021/11/25 12:51:28;;;;;;;;;;;;;;;4.23;56.91;100830.89;1630386;87;21446;-50
2021/11/25 13:01:37;;;;;;;6.22;4.03;;;;;;;4.17;57.49;100813.81;1657206;84;21240;31
2021/11/25 14:56:15;;;;;;;21.70;9.20;;;;;;;3.41;62.59;100711.52;1587931;85;21344;-41
2021/11/25 14:59:06;;;;;;;17.37;10.08;;;;;;;3.42;62.51;100712.89;1632875;86;21059;-46
2021/11/25 15:01:44;;;;;;;21.35;9.43;;;;;;;3.44;62.45;100711.64;1620389;86;21125;-46
2021/11/25 15:04:17;;;;;;;14.50;9.08;;;;;;;3.43;62.48;100717.64;1647125;86;21111;-46
2021/11/25 15:06:47;;;;;;;21.15;10.80;;;;;;;3.43;62.53;100710.77;1660645;83;21089;-40
2021/11/25 15:09:19;;;;;;;20.40;11.85;;;;;;;3.44;62.28;100711.64;1637860;84;21682;-46
2021/11/25 15:11:54;;;;;;;20.43;12.23;;;;;;;3.42;62.54;100710.30;1641987;85;21627;-46
2021/11/25 15:14:29;;;;;;;20.60;10.25;;;;;;;3.41;62.66;100702.47;1645978;83;21349;-47
2021/11/25 15:16:59;;;;;;;17.75;10.35;;;;;;;3.40;62.54;100700.70;1663113;84;21062;-47
2021/11/25 15:19:31;;;;;;;25.35;11.25;;;;;;;3.38;62.48;100699.78;1702404;84;21073;-46
2021/11/25 15:22:07;;;;;;;19.23;10.43;;;;;;;3.37;62.58;100700.20;1653942;84;21589;-41
2021/11/25 15:24:35;;;;;;;24.15;9.20;;;;;;;3.35;62.42;100709.59;1709198;83;21036;-46
2021/11/25 15:27:05;;;;;;;14.05;9.10;;;;;;;3.32;62.57;100695.27;1689553;84;21675;-41
2021/11/25 15:29:43;;;;;;;17.00;9.65;;;;;;;3.30;62.75;100699.49;1722957;83;21595;-41
2021/11/25 15:32:11;;;;;;;16.10;10.58;;;;;;;3.29;62.87;100702.03;1737499;82;21084;-49
2021/11/25 15:34:41;;;;;;;20.52;10.72;;;;;;;3.24;62.82;100697.10;1689960;84;21588;-41
2021/11/25 15:37:30;;;;;;;18.37;10.40;;;;;;;3.20;63.16;100694.42;1684669;84;21117;-43
2021/11/25 15:40:23;;;;;;;17.40;10.98;;;;;;;3.18;63.32;100694.77;1714055;84;21094;-47
2021/11/25 15:43:00;;;;;;;15.18;8.88;;;;;;;3.13;63.66;100691.16;1669631;84;21119;-41
2021/11/25 15:45:40;;;;;;;13.98;9.25;;;;;;;3.07;63.81;100690.91;1693650;84;21190;-41
2021/11/25 15:48:11;;;;;;;18.45;11.28;;;;;;;3.01;63.51;100682.05;1634923;86;21013;-47
2021/11/25 15:50:40;;;;;;;12.28;8.30;;;;;;;2.93;63.77;100681.37;1642055;84;21092;-47
2021/11/25 15:53:29;;;;;;;14.23;9.30;;;;;;;2.86;63.92;100692.31;1666707;84;21123;-42
2021/11/25 15:55:57;;;;;;;19.25;9.73;;;;;;;2.74;64.12;100684.52;1649354;83;21506;-41
